sensor_id;sensor_type;location;lat;lon;timestamp;P1;durP1;ratioP1;P2;durP2;ratioP2
74215;SDS011;62577;53.378;-2.914;2022-10-12T00:01:47;11.68;;;4.07;;
74215;SDS011;62577;53.378;-2.914;2022-10-12T00:04:13;12.52;;;3.67;;
74215;SDS011;62577;53.378;-2.914;2022-10-12T00:06:39;9.43;;;3.25;;
74215;SDS011;62577;53.378;-2.914;2022-10-12T00:09:06;10.70;;;3.75;;
74215;SDS011;62577;53.378;-2.914;2022-10-12T00:11:32;10.85;;;3.67;;
74215;SDS011;62577;53.378;-2.914;2022-10-12T00:13:58;13.25;;;3.38;;
74215;SDS011;62577;53.378;-2.914;2022-10-12T00:16:24;9.13;;;2.50;;
74215;SDS011;62577;53.378;-2.914;2022-10-12T00:18:55;11.43;;;2.53;;
74215;SDS011;62577;53.378;-2.914;2022-10-12T00:21:21;11.25;;;2.60;;
74215;SDS011;62577;53.378;-2.914;2022-10-12T00:23:48;9.25;;;2.28;;
74215;SDS011;62577;53.378;-2.914;2022-10-12T00:26:18;12.82;;;2.30;;
74215;SDS011;62577;53.378;-2.914;2022-10-12T00:28:45;16.58;;;3.20;;
74215;SDS011;62577;53.378;-2.914;2022-10-12T00:31:15;8.10;;;2.22;;
74215;SDS011;62577;53.378;-2.914;2022-10-12T00:33:42;12.18;;;3.00;;
74215;SDS011;62577;53.378;-2.914;2022-10-12T00:36:16;9.68;;;2.15;;
74215;SDS011;62577;53.378;-2.914;2022-10-12T00:38:42;6.45;;;2.53;;
74215;SDS011;62577;53.378;-2.914;2022-10-12T00:41:08;11.55;;;2.78;;
74215;SDS011;62577;53.378;-2.914;2022-10-12T00:43:35;8.05;;;2.38;;
74215;SDS011;62577;53.378;-2.914;2022-10-12T00:46:10;9.30;;;2.83;;
74215;SDS011;62577;53.378;-2.914;2022-10-12T00:48:38;8.32;;;2.33;;
74215;SDS011;62577;53.378;-2.914;2022-10-12T00:51:05;11.63;;;2.67;;
74215;SDS011;62577;53.378;-2.914;2022-10-12T00:53:33;8.95;;;2.70;;
74215;SDS011;62577;53.378;-2.914;2022-10-12T00:56:02;7.97;;;2.40;;
74215;SDS011;62577;53.378;-2.914;2022-10-12T00:58:28;11.98;;;2.72;;
74215;SDS011;62577;53.378;-2.914;2022-10-12T01:01:02;7.18;;;2.85;;
74215;SDS011;62577;53.378;-2.914;2022-10-12T01:03:28;10.63;;;2.90;;
74215;SDS011;62577;53.378;-2.914;2022-10-12T01:05:54;13.82;;;2.83;;
74215;SDS011;62577;53.378;-2.914;2022-10-12T01:08:20;7.75;;;2.83;;
74215;SDS011;62577;53.378;-2.914;2022-10-12T01:10:47;6.35;;;2.35;;
74215;SDS011;62577;53.378;-2.914;2022-10-12T01:13:13;8.00;;;2.83;;
74215;SDS011;62577;53.378;-2.914;2022-10-12T01:15:41;6.82;;;2.28;;
74215;SDS011;62577;53.378;-2.914;2022-10-12T01:18:10;16.38;;;2.95;;
74215;SDS011;62577;53.378;-2.914;2022-10-12T01:20:48;8.45;;;2.17;;
74215;SDS011;62577;53.378;-2.914;2022-10-12T01:28:18;9.90;;;1.90;;
74215;SDS011;62577;53.378;-2.914;2022-10-12T01:30:48;8.02;;;2.85;;
74215;SDS011;62577;53.378;-2.914;2022-10-12T01:41:04;9.77;;;2.22;;
74215;SDS011;62577;53.378;-2.914;2022-10-12T01:43:32;12.00;;;2.80;;
74215;SDS011;62577;53.378;-2.914;2022-10-12T01:46:06;4.80;;;1.65;;
74215;SDS011;62577;53.378;-2.914;2022-10-12T01:48:32;4.65;;;2.17;;
74215;SDS011;62577;53.378;-2.914;2022-10-12T01:50:59;9.80;;;2.22;;
74215;SDS011;62577;53.378;-2.914;2022-10-12T01:53:28;7.65;;;2.30;;
74215;SDS011;62577;53.378;-2.914;2022-10-12T01:56:06;9.27;;;1.70;;
74215;SDS011;62577;53.378;-2.914;2022-10-12T02:01:38;6.57;;;1.80;;
74215;SDS011;62577;53.378;-2.914;2022-10-12T02:04:09;7.43;;;2.35;;
74215;SDS011;62577;53.378;-2.914;2022-10-12T02:06:39;8.68;;;2.50;;
74215;SDS011;62577;53.378;-2.914;2022-10-12T02:09:10;7.32;;;2.00;;
74215;SDS011;62577;53.378;-2.914;2022-10-12T02:11:39;12.93;;;2.40;;
74215;SDS011;62577;53.378;-2.914;2022-10-12T02:14:14;5.65;;;1.90;;
74215;SDS011;62577;53.378;-2.914;2022-10-12T02:16:42;9.80;;;2.08;;
74215;SDS011;62577;53.378;-2.914;2022-10-12T02:19:09;9.68;;;2.35;;
74215;SDS011;62577;53.378;-2.914;2022-10-12T02:21:36;8.73;;;2.20;;
74215;SDS011;62577;53.378;-2.914;2022-10-12T02:24:04;7.90;;;2.10;;
74215;SDS011;62577;53.378;-2.914;2022-10-12T02:26:31;9.95;;;1.90;;
74215;SDS011;62577;53.378;-2.914;2022-10-12T02:28:59;9.05;;;1.75;;
74215;SDS011;62577;53.378;-2.914;2022-10-12T02:31:44;6.57;;;2.28;;
74215;SDS011;62577;53.378;-2.914;2022-10-12T02:34:15;8.02;;;1.50;;
74215;SDS011;62577;53.378;-2.914;2022-10-12T02:36:50;6.95;;;1.83;;
74215;SDS011;62577;53.378;-2.914;2022-10-12T02:39:18;8.32;;;2.05;;
74215;SDS011;62577;53.378;-2.914;2022-10-12T02:41:46;7.97;;;2.00;;
74215;SDS011;62577;53.378;-2.914;2022-10-12T02:44:15;6.78;;;1.77;;
74215;SDS011;62577;53.378;-2.914;2022-10-12T02:46:44;6.45;;;1.55;;
74215;SDS011;62577;53.378;-2.914;2022-10-12T02:49:12;9.63;;;1.85;;
74215;SDS011;62577;53.378;-2.914;2022-10-12T02:51:39;9.40;;;1.92;;
74215;SDS011;62577;53.378;-2.914;2022-10-12T02:54:05;7.30;;;1.77;;
74215;SDS011;62577;53.378;-2.914;2022-10-12T02:56:32;13.98;;;1.95;;
74215;SDS011;62577;53.378;-2.914;2022-10-12T02:58:58;7.97;;;2.25;;
74215;SDS011;62577;53.378;-2.914;2022-10-12T03:01:24;13.10;;;2.92;;
74215;SDS011;62577;53.378;-2.914;2022-10-12T03:03:50;7.70;;;2.25;;
74215;SDS011;62577;53.378;-2.914;2022-10-12T03:06:16;9.98;;;1.85;;
74215;SDS011;62577;53.378;-2.914;2022-10-12T03:08:44;10.30;;;1.90;;
74215;SDS011;62577;53.378;-2.914;2022-10-12T03:11:11;7.72;;;2.00;;
74215;SDS011;62577;53.378;-2.914;2022-10-12T03:13:38;9.13;;;1.60;;
74215;SDS011;62577;53.378;-2.914;2022-10-12T03:16:05;7.18;;;2.00;;
74215;SDS011;62577;53.378;-2.914;2022-10-12T03:18:31;7.15;;;1.85;;
74215;SDS011;62577;53.378;-2.914;2022-10-12T03:20:58;6.13;;;1.88;;
74215;SDS011;62577;53.378;-2.914;2022-10-12T03:23:24;6.72;;;2.00;;
74215;SDS011;62577;53.378;-2.914;2022-10-12T03:25:51;11.43;;;2.20;;
74215;SDS011;62577;53.378;-2.914;2022-10-12T03:28:17;9.30;;;2.05;;
74215;SDS011;62577;53.378;-2.914;2022-10-12T03:30:43;6.38;;;1.80;;
74215;SDS011;62577;53.378;-2.914;2022-10-12T03:33:10;9.25;;;3.30;;
74215;SDS011;62577;53.378;-2.914;2022-10-12T03:35:36;6.70;;;2.08;;
74215;SDS011;62577;53.378;-2.914;2022-10-12T03:38:02;6.80;;;2.25;;
74215;SDS011;62577;53.378;-2.914;2022-10-12T03:40:28;10.30;;;1.70;;
74215;SDS011;62577;53.378;-2.914;2022-10-12T03:42:54;9.48;;;1.52;;
74215;SDS011;62577;53.378;-2.914;2022-10-12T03:45:20;7.18;;;2.35;;
74215;SDS011;62577;53.378;-2.914;2022-10-12T03:47:46;8.20;;;1.92;;
74215;SDS011;62577;53.378;-2.914;2022-10-12T03:50:12;6.55;;;2.03;;
74215;SDS011;62577;53.378;-2.914;2022-10-12T03:52:38;12.20;;;1.80;;
74215;SDS011;62577;53.378;-2.914;2022-10-12T03:55:04;8.10;;;1.90;;
74215;SDS011;62577;53.378;-2.914;2022-10-12T03:57:31;10.50;;;2.28;;
74215;SDS011;62577;53.378;-2.914;2022-10-12T03:59:57;8.55;;;1.95;;
74215;SDS011;62577;53.378;-2.914;2022-10-12T04:02:23;8.90;;;2.33;;
74215;SDS011;62577;53.378;-2.914;2022-10-12T04:04:49;8.20;;;1.95;;
74215;SDS011;62577;53.378;-2.914;2022-10-12T04:07:15;8.65;;;1.90;;
74215;SDS011;62577;53.378;-2.914;2022-10-12T04:09:41;11.23;;;2.30;;
74215;SDS011;62577;53.378;-2.914;2022-10-12T04:12:07;7.10;;;2.20;;
74215;SDS011;62577;53.378;-2.914;2022-10-12T04:14:33;9.52;;;2.67;;
74215;SDS011;62577;53.378;-2.914;2022-10-12T04:16:59;8.93;;;1.48;;
74215;SDS011;62577;53.378;-2.914;2022-10-12T04:19:25;6.28;;;1.77;;
74215;SDS011;62577;53.378;-2.914;2022-10-12T04:21:51;11.18;;;2.30;;
74215;SDS011;62577;53.378;-2.914;2022-10-12T04:24:17;8.65;;;2.15;;
74215;SDS011;62577;53.378;-2.914;2022-10-12T04:26:43;7.13;;;1.67;;
74215;SDS011;62577;53.378;-2.914;2022-10-12T04:29:10;7.25;;;1.67;;
74215;SDS011;62577;53.378;-2.914;2022-10-12T04:31:37;9.48;;;1.88;;
74215;SDS011;62577;53.378;-2.914;2022-10-12T04:34:03;11.30;;;2.70;;
74215;SDS011;62577;53.378;-2.914;2022-10-12T04:36:29;8.10;;;2.33;;
74215;SDS011;62577;53.378;-2.914;2022-10-12T04:38:55;6.55;;;2.30;;
74215;SDS011;62577;53.378;-2.914;2022-10-12T04:41:21;12.07;;;2.50;;
74215;SDS011;62577;53.378;-2.914;2022-10-12T04:43:47;15.75;;;3.58;;
74215;SDS011;62577;53.378;-2.914;2022-10-12T04:46:13;14.15;;;2.80;;
74215;SDS011;62577;53.378;-2.914;2022-10-12T04:48:39;11.05;;;2.13;;
74215;SDS011;62577;53.378;-2.914;2022-10-12T04:51:05;9.05;;;2.40;;
74215;SDS011;62577;53.378;-2.914;2022-10-12T04:53:31;8.57;;;2.05;;
74215;SDS011;62577;53.378;-2.914;2022-10-12T04:56:00;11.02;;;2.53;;
74215;SDS011;62577;53.378;-2.914;2022-10-12T04:58:27;6.22;;;2.50;;
74215;SDS011;62577;53.378;-2.914;2022-10-12T05:00:53;7.97;;;2.30;;
74215;SDS011;62577;53.378;-2.914;2022-10-12T05:03:19;11.18;;;3.10;;
74215;SDS011;62577;53.378;-2.914;2022-10-12T05:05:45;7.57;;;2.28;;
74215;SDS011;62577;53.378;-2.914;2022-10-12T05:08:11;10.98;;;2.63;;
74215;SDS011;62577;53.378;-2.914;2022-10-12T05:10:38;10.32;;;2.78;;
74215;SDS011;62577;53.378;-2.914;2022-10-12T05:13:04;7.78;;;2.13;;
74215;SDS011;62577;53.378;-2.914;2022-10-12T05:15:31;10.38;;;2.60;;
74215;SDS011;62577;53.378;-2.914;2022-10-12T05:17:57;7.90;;;2.03;;
74215;SDS011;62577;53.378;-2.914;2022-10-12T05:20:23;9.88;;;2.63;;
74215;SDS011;62577;53.378;-2.914;2022-10-12T05:22:49;10.23;;;2.90;;
74215;SDS011;62577;53.378;-2.914;2022-10-12T05:25:15;7.20;;;1.98;;
74215;SDS011;62577;53.378;-2.914;2022-10-12T05:27:41;8.50;;;2.22;;
74215;SDS011;62577;53.378;-2.914;2022-10-12T05:30:07;7.18;;;2.03;;
74215;SDS011;62577;53.378;-2.914;2022-10-12T05:32:34;14.88;;;2.97;;
74215;SDS011;62577;53.378;-2.914;2022-10-12T05:35:00;9.43;;;3.22;;
74215;SDS011;62577;53.378;-2.914;2022-10-12T05:37:27;10.75;;;2.20;;
74215;SDS011;62577;53.378;-2.914;2022-10-12T05:39:53;12.48;;;2.53;;
74215;SDS011;62577;53.378;-2.914;2022-10-12T05:42:19;8.18;;;3.00;;
74215;SDS011;62577;53.378;-2.914;2022-10-12T05:44:45;10.55;;;2.38;;
74215;SDS011;62577;53.378;-2.914;2022-10-12T05:47:11;12.95;;;3.35;;
74215;SDS011;62577;53.378;-2.914;2022-10-12T05:49:37;10.05;;;2.60;;
74215;SDS011;62577;53.378;-2.914;2022-10-12T05:52:03;9.57;;;2.53;;
74215;SDS011;62577;53.378;-2.914;2022-10-12T05:54:29;11.55;;;2.60;;
74215;SDS011;62577;53.378;-2.914;2022-10-12T05:56:55;8.48;;;2.70;;
74215;SDS011;62577;53.378;-2.914;2022-10-12T05:59:21;10.48;;;2.88;;
74215;SDS011;62577;53.378;-2.914;2022-10-12T06:01:47;8.68;;;2.90;;
74215;SDS011;62577;53.378;-2.914;2022-10-12T06:04:14;9.57;;;2.95;;
74215;SDS011;62577;53.378;-2.914;2022-10-12T06:06:40;12.18;;;3.28;;
74215;SDS011;62577;53.378;-2.914;2022-10-12T06:09:06;9.90;;;3.47;;
74215;SDS011;62577;53.378;-2.914;2022-10-12T06:11:32;8.68;;;3.05;;
74215;SDS011;62577;53.378;-2.914;2022-10-12T06:13:58;11.90;;;3.53;;
74215;SDS011;62577;53.378;-2.914;2022-10-12T06:16:24;8.82;;;2.83;;
74215;SDS011;62577;53.378;-2.914;2022-10-12T06:18:50;13.40;;;3.92;;
74215;SDS011;62577;53.378;-2.914;2022-10-12T06:21:16;16.30;;;3.78;;
74215;SDS011;62577;53.378;-2.914;2022-10-12T06:23:42;9.70;;;3.17;;
74215;SDS011;62577;53.378;-2.914;2022-10-12T06:26:08;11.07;;;3.63;;
74215;SDS011;62577;53.378;-2.914;2022-10-12T06:28:34;10.63;;;3.47;;
74215;SDS011;62577;53.378;-2.914;2022-10-12T06:31:00;11.88;;;3.53;;
74215;SDS011;62577;53.378;-2.914;2022-10-12T06:33:26;12.10;;;3.72;;
74215;SDS011;62577;53.378;-2.914;2022-10-12T06:35:53;11.15;;;3.60;;
74215;SDS011;62577;53.378;-2.914;2022-10-12T06:38:19;11.93;;;3.70;;
74215;SDS011;62577;53.378;-2.914;2022-10-12T06:40:45;13.43;;;4.07;;
74215;SDS011;62577;53.378;-2.914;2022-10-12T06:43:11;7.93;;;2.83;;
74215;SDS011;62577;53.378;-2.914;2022-10-12T06:45:37;10.88;;;3.33;;
74215;SDS011;62577;53.378;-2.914;2022-10-12T06:48:05;11.00;;;3.67;;
74215;SDS011;62577;53.378;-2.914;2022-10-12T06:50:31;8.23;;;3.05;;
74215;SDS011;62577;53.378;-2.914;2022-10-12T06:52:57;7.68;;;3.53;;
74215;SDS011;62577;53.378;-2.914;2022-10-12T06:55:23;14.50;;;3.58;;
74215;SDS011;62577;53.378;-2.914;2022-10-12T06:57:49;11.65;;;4.10;;
74215;SDS011;62577;53.378;-2.914;2022-10-12T07:00:15;7.00;;;3.42;;
74215;SDS011;62577;53.378;-2.914;2022-10-12T07:02:41;9.02;;;3.65;;
74215;SDS011;62577;53.378;-2.914;2022-10-12T07:05:07;13.45;;;3.40;;
74215;SDS011;62577;53.378;-2.914;2022-10-12T07:07:34;10.98;;;4.25;;
74215;SDS011;62577;53.378;-2.914;2022-10-12T07:10:01;9.27;;;3.75;;
74215;SDS011;62577;53.378;-2.914;2022-10-12T07:12:28;11.23;;;3.55;;
74215;SDS011;62577;53.378;-2.914;2022-10-12T07:14:54;9.57;;;3.90;;
74215;SDS011;62577;53.378;-2.914;2022-10-12T07:17:20;6.75;;;3.38;;
74215;SDS011;62577;53.378;-2.914;2022-10-12T07:19:46;11.80;;;3.72;;
74215;SDS011;62577;53.378;-2.914;2022-10-12T07:22:12;10.48;;;3.65;;
74215;SDS011;62577;53.378;-2.914;2022-10-12T07:24:38;10.20;;;3.85;;
74215;SDS011;62577;53.378;-2.914;2022-10-12T07:27:05;15.02;;;5.15;;
74215;SDS011;62577;53.378;-2.914;2022-10-12T07:29:32;8.20;;;3.33;;
74215;SDS011;62577;53.378;-2.914;2022-10-12T07:31:59;16.38;;;3.72;;
74215;SDS011;62577;53.378;-2.914;2022-10-12T07:34:25;10.70;;;3.50;;
74215;SDS011;62577;53.378;-2.914;2022-10-12T07:36:52;9.88;;;3.17;;
74215;SDS011;62577;53.378;-2.914;2022-10-12T07:39:18;8.15;;;3.33;;
74215;SDS011;62577;53.378;-2.914;2022-10-12T07:41:45;14.18;;;4.20;;
74215;SDS011;62577;53.378;-2.914;2022-10-12T07:44:11;11.82;;;3.83;;
74215;SDS011;62577;53.378;-2.914;2022-10-12T07:46:37;7.65;;;3.20;;
74215;SDS011;62577;53.378;-2.914;2022-10-12T07:49:03;9.43;;;2.67;;
74215;SDS011;62577;53.378;-2.914;2022-10-12T07:51:30;10.80;;;3.53;;
74215;SDS011;62577;53.378;-2.914;2022-10-12T07:53:56;11.93;;;3.42;;
74215;SDS011;62577;53.378;-2.914;2022-10-12T07:56:24;8.90;;;2.75;;
74215;SDS011;62577;53.378;-2.914;2022-10-12T07:58:51;15.13;;;2.97;;
74215;SDS011;62577;53.378;-2.914;2022-10-12T08:01:18;12.18;;;2.60;;
74215;SDS011;62577;53.378;-2.914;2022-10-12T08:03:44;6.35;;;2.30;;
74215;SDS011;62577;53.378;-2.914;2022-10-12T08:06:11;9.55;;;3.13;;
74215;SDS011;62577;53.378;-2.914;2022-10-12T08:08:38;9.48;;;2.92;;
74215;SDS011;62577;53.378;-2.914;2022-10-12T08:11:05;10.27;;;3.88;;
74215;SDS011;62577;53.378;-2.914;2022-10-12T08:13:31;9.32;;;3.25;;
74215;SDS011;62577;53.378;-2.914;2022-10-12T08:15:57;11.30;;;2.90;;
74215;SDS011;62577;53.378;-2.914;2022-10-12T08:18:24;8.55;;;3.08;;
74215;SDS011;62577;53.378;-2.914;2022-10-12T08:20:50;10.63;;;3.55;;
74215;SDS011;62577;53.378;-2.914;2022-10-12T08:23:16;13.77;;;3.55;;
74215;SDS011;62577;53.378;-2.914;2022-10-12T08:25:49;12.43;;;3.97;;
74215;SDS011;62577;53.378;-2.914;2022-10-12T08:28:15;8.93;;;2.50;;
74215;SDS011;62577;53.378;-2.914;2022-10-12T08:30:41;9.70;;;3.58;;
74215;SDS011;62577;53.378;-2.914;2022-10-12T08:33:07;8.32;;;2.55;;
74215;SDS011;62577;53.378;-2.914;2022-10-12T08:35:36;10.88;;;3.83;;
74215;SDS011;62577;53.378;-2.914;2022-10-12T08:38:02;8.13;;;2.90;;
74215;SDS011;62577;53.378;-2.914;2022-10-12T08:40:29;10.45;;;3.40;;
74215;SDS011;62577;53.378;-2.914;2022-10-12T08:43:05;10.57;;;3.40;;
74215;SDS011;62577;53.378;-2.914;2022-10-12T08:45:37;12.23;;;3.72;;
74215;SDS011;62577;53.378;-2.914;2022-10-12T08:48:11;8.55;;;2.90;;
74215;SDS011;62577;53.378;-2.914;2022-10-12T08:50:39;7.20;;;2.80;;
74215;SDS011;62577;53.378;-2.914;2022-10-12T08:53:12;9.10;;;2.85;;
74215;SDS011;62577;53.378;-2.914;2022-10-12T08:55:41;10.40;;;2.90;;
74215;SDS011;62577;53.378;-2.914;2022-10-12T08:58:13;16.70;;;3.22;;
74215;SDS011;62577;53.378;-2.914;2022-10-12T09:00:40;6.95;;;2.90;;
74215;SDS011;62577;53.378;-2.914;2022-10-12T09:03:16;8.55;;;3.03;;
74215;SDS011;62577;53.378;-2.914;2022-10-12T09:06:27;10.18;;;3.25;;
74215;SDS011;62577;53.378;-2.914;2022-10-12T09:14:30;9.20;;;3.20;;
74215;SDS011;62577;53.378;-2.914;2022-10-12T09:16:47;9.23;;;3.90;;
74215;SDS011;62577;53.378;-2.914;2022-10-12T09:19:19;11.20;;;3.42;;
74215;SDS011;62577;53.378;-2.914;2022-10-12T09:21:47;19.27;;;3.92;;
74215;SDS011;62577;53.378;-2.914;2022-10-12T09:24:15;8.15;;;2.75;;
74215;SDS011;62577;53.378;-2.914;2022-10-12T09:26:43;13.57;;;3.72;;
74215;SDS011;62577;53.378;-2.914;2022-10-12T09:34:16;8.10;;;2.78;;
74215;SDS011;62577;53.378;-2.914;2022-10-12T09:36:42;8.70;;;3.10;;
74215;SDS011;62577;53.378;-2.914;2022-10-12T09:39:14;11.38;;;3.13;;
74215;SDS011;62577;53.378;-2.914;2022-10-12T09:41:42;12.90;;;2.75;;
74215;SDS011;62577;53.378;-2.914;2022-10-12T09:44:25;9.25;;;3.10;;
74215;SDS011;62577;53.378;-2.914;2022-10-12T09:46:55;8.25;;;2.75;;
74215;SDS011;62577;53.378;-2.914;2022-10-12T09:49:41;10.48;;;2.60;;
74215;SDS011;62577;53.378;-2.914;2022-10-12T09:52:08;10.60;;;3.17;;
74215;SDS011;62577;53.378;-2.914;2022-10-12T09:54:35;11.70;;;3.13;;
74215;SDS011;62577;53.378;-2.914;2022-10-12T09:57:04;8.55;;;2.60;;
74215;SDS011;62577;53.378;-2.914;2022-10-12T09:59:32;7.75;;;2.92;;
74215;SDS011;62577;53.378;-2.914;2022-10-12T10:04:37;10.90;;;3.15;;
74215;SDS011;62577;53.378;-2.914;2022-10-12T10:07:18;10.15;;;3.13;;
74215;SDS011;62577;53.378;-2.914;2022-10-12T10:09:45;12.63;;;2.83;;
74215;SDS011;62577;53.378;-2.914;2022-10-12T10:12:26;8.95;;;3.40;;
74215;SDS011;62577;53.378;-2.914;2022-10-12T10:14:53;13.48;;;2.72;;
74215;SDS011;62577;53.378;-2.914;2022-10-12T10:17:24;7.22;;;2.67;;
74215;SDS011;62577;53.378;-2.914;2022-10-12T10:19:50;7.78;;;2.85;;
74215;SDS011;62577;53.378;-2.914;2022-10-12T10:22:17;11.00;;;3.40;;
74215;SDS011;62577;53.378;-2.914;2022-10-12T10:24:48;9.43;;;2.90;;
74215;SDS011;62577;53.378;-2.914;2022-10-12T10:32:43;9.13;;;2.80;;
74215;SDS011;62577;53.378;-2.914;2022-10-12T10:37:45;11.57;;;3.38;;
74215;SDS011;62577;53.378;-2.914;2022-10-12T10:40:30;13.23;;;3.40;;
74215;SDS011;62577;53.378;-2.914;2022-10-12T10:42:58;7.03;;;2.67;;
74215;SDS011;62577;53.378;-2.914;2022-10-12T10:45:31;8.52;;;2.97;;
74215;SDS011;62577;53.378;-2.914;2022-10-12T10:47:57;5.45;;;2.58;;
74215;SDS011;62577;53.378;-2.914;2022-10-12T10:50:32;11.55;;;2.80;;
74215;SDS011;62577;53.378;-2.914;2022-10-12T10:53:00;10.98;;;3.20;;
74215;SDS011;62577;53.378;-2.914;2022-10-12T10:55:46;9.52;;;2.25;;
74215;SDS011;62577;53.378;-2.914;2022-10-12T10:58:25;8.57;;;2.50;;
74215;SDS011;62577;53.378;-2.914;2022-10-12T11:00:53;6.28;;;1.95;;
74215;SDS011;62577;53.378;-2.914;2022-10-12T11:03:22;8.23;;;2.13;;
74215;SDS011;62577;53.378;-2.914;2022-10-12T11:05:50;10.02;;;2.45;;
74215;SDS011;62577;53.378;-2.914;2022-10-12T11:10:52;4.75;;;1.80;;
74215;SDS011;62577;53.378;-2.914;2022-10-12T11:13:21;7.13;;;1.75;;
74215;SDS011;62577;53.378;-2.914;2022-10-12T11:18:30;7.65;;;2.00;;
74215;SDS011;62577;53.378;-2.914;2022-10-12T11:28:30;15.15;;;1.95;;
74215;SDS011;62577;53.378;-2.914;2022-10-12T11:30:57;10.38;;;1.70;;
74215;SDS011;62577;53.378;-2.914;2022-10-12T11:33:25;9.90;;;1.77;;
74215;SDS011;62577;53.378;-2.914;2022-10-12T11:35:52;6.40;;;1.77;;
74215;SDS011;62577;53.378;-2.914;2022-10-12T11:40:55;5.10;;;1.55;;
74215;SDS011;62577;53.378;-2.914;2022-10-12T11:43:25;5.95;;;1.35;;
74215;SDS011;62577;53.378;-2.914;2022-10-12T11:45:56;3.70;;;1.17;;
74215;SDS011;62577;53.378;-2.914;2022-10-12T11:48:30;3.78;;;0.70;;
74215;SDS011;62577;53.378;-2.914;2022-10-12T11:50:57;5.90;;;1.00;;
74215;SDS011;62577;53.378;-2.914;2022-10-12T11:55:58;4.10;;;1.35;;
74215;SDS011;62577;53.378;-2.914;2022-10-12T11:58:27;8.35;;;1.45;;
74215;SDS011;62577;53.378;-2.914;2022-10-12T12:03:30;7.63;;;3.15;;
74215;SDS011;62577;53.378;-2.914;2022-10-12T12:11:22;5.78;;;1.50;;
74215;SDS011;62577;53.378;-2.914;2022-10-12T12:13:48;7.95;;;1.55;;
74215;SDS011;62577;53.378;-2.914;2022-10-12T12:21:25;3.03;;;1.17;;
74215;SDS011;62577;53.378;-2.914;2022-10-12T12:23:52;4.50;;;1.00;;
74215;SDS011;62577;53.378;-2.914;2022-10-12T12:26:20;5.55;;;1.65;;
74215;SDS011;62577;53.378;-2.914;2022-10-12T12:28:47;4.50;;;1.98;;
74215;SDS011;62577;53.378;-2.914;2022-10-12T12:33:51;1.40;;;0.60;;
74215;SDS011;62577;53.378;-2.914;2022-10-12T12:36:31;2.25;;;0.60;;
74215;SDS011;62577;53.378;-2.914;2022-10-12T12:38:58;2.25;;;0.30;;
74215;SDS011;62577;53.378;-2.914;2022-10-12T12:41:44;3.38;;;0.40;;
74215;SDS011;62577;53.378;-2.914;2022-10-12T12:47:13;2.33;;;0.60;;
74215;SDS011;62577;53.378;-2.914;2022-10-12T12:49:41;2.00;;;0.80;;
74215;SDS011;62577;53.378;-2.914;2022-10-12T12:52:18;4.15;;;0.93;;
74215;SDS011;62577;53.378;-2.914;2022-10-12T13:02:54;2.55;;;0.82;;
74215;SDS011;62577;53.378;-2.914;2022-10-12T13:13:18;6.07;;;0.90;;
74215;SDS011;62577;53.378;-2.914;2022-10-12T13:21:03;7.15;;;1.17;;
74215;SDS011;62577;53.378;-2.914;2022-10-12T13:23:29;2.83;;;0.98;;
74215;SDS011;62577;53.378;-2.914;2022-10-12T13:25:56;3.25;;;0.70;;
74215;SDS011;62577;53.378;-2.914;2022-10-12T13:30:52;1.88;;;0.43;;
74215;SDS011;62577;53.378;-2.914;2022-10-12T13:33:25;1.45;;;0.60;;
74215;SDS011;62577;53.378;-2.914;2022-10-12T13:38:56;1.20;;;0.57;;
74215;SDS011;62577;53.378;-2.914;2022-10-12T13:41:22;2.85;;;0.60;;
74215;SDS011;62577;53.378;-2.914;2022-10-12T13:49:09;2.67;;;1.08;;
74215;SDS011;62577;53.378;-2.914;2022-10-12T13:51:36;6.45;;;1.33;;
74215;SDS011;62577;53.378;-2.914;2022-10-12T13:54:12;5.90;;;1.75;;
74215;SDS011;62577;53.378;-2.914;2022-10-12T13:56:39;6.10;;;1.35;;
74215;SDS011;62577;53.378;-2.914;2022-10-12T13:59:10;1.92;;;0.88;;
74215;SDS011;62577;53.378;-2.914;2022-10-12T14:01:47;2.63;;;0.90;;
74215;SDS011;62577;53.378;-2.914;2022-10-12T14:04:14;1.90;;;0.63;;
74215;SDS011;62577;53.378;-2.914;2022-10-12T14:06:40;3.08;;;0.98;;
74215;SDS011;62577;53.378;-2.914;2022-10-12T14:09:11;2.33;;;0.50;;
74215;SDS011;62577;53.378;-2.914;2022-10-12T14:11:39;1.15;;;0.60;;
74215;SDS011;62577;53.378;-2.914;2022-10-12T14:14:11;1.15;;;0.55;;
74215;SDS011;62577;53.378;-2.914;2022-10-12T14:16:41;1.27;;;0.70;;
74215;SDS011;62577;53.378;-2.914;2022-10-12T14:19:18;1.85;;;0.77;;
74215;SDS011;62577;53.378;-2.914;2022-10-12T14:21:44;1.50;;;0.70;;
74215;SDS011;62577;53.378;-2.914;2022-10-12T14:24:16;1.30;;;0.50;;
74215;SDS011;62577;53.378;-2.914;2022-10-12T14:26:43;2.08;;;0.57;;
74215;SDS011;62577;53.378;-2.914;2022-10-12T14:31:50;1.33;;;0.57;;
74215;SDS011;62577;53.378;-2.914;2022-10-12T14:39:50;0.68;;;0.40;;
74215;SDS011;62577;53.378;-2.914;2022-10-12T14:42:33;1.33;;;0.40;;
74215;SDS011;62577;53.378;-2.914;2022-10-12T14:45:00;2.63;;;0.50;;
74215;SDS011;62577;53.378;-2.914;2022-10-12T14:49:53;4.10;;;0.75;;
74215;SDS011;62577;53.378;-2.914;2022-10-12T14:52:21;2.78;;;0.80;;
74215;SDS011;62577;53.378;-2.914;2022-10-12T14:54:49;3.70;;;1.30;;
74215;SDS011;62577;53.378;-2.914;2022-10-12T14:57:15;6.72;;;1.00;;
74215;SDS011;62577;53.378;-2.914;2022-10-12T14:59:42;3.15;;;1.15;;
74215;SDS011;62577;53.378;-2.914;2022-10-12T15:02:11;4.47;;;1.20;;
74215;SDS011;62577;53.378;-2.914;2022-10-12T15:04:37;4.18;;;1.10;;
74215;SDS011;62577;53.378;-2.914;2022-10-12T15:07:06;2.47;;;0.85;;
74215;SDS011;62577;53.378;-2.914;2022-10-12T15:09:37;2.13;;;0.80;;
74215;SDS011;62577;53.378;-2.914;2022-10-12T15:12:03;1.08;;;0.60;;
74215;SDS011;62577;53.378;-2.914;2022-10-12T15:14:29;2.33;;;0.70;;
74215;SDS011;62577;53.378;-2.914;2022-10-12T15:16:55;7.90;;;4.45;;
74215;SDS011;62577;53.378;-2.914;2022-10-12T15:19:21;2.25;;;1.30;;
74215;SDS011;62577;53.378;-2.914;2022-10-12T15:21:48;5.55;;;3.85;;
74215;SDS011;62577;53.378;-2.914;2022-10-12T15:24:14;3.03;;;1.10;;
74215;SDS011;62577;53.378;-2.914;2022-10-12T15:26:40;3.20;;;1.80;;
74215;SDS011;62577;53.378;-2.914;2022-10-12T15:29:06;4.10;;;1.70;;
74215;SDS011;62577;53.378;-2.914;2022-10-12T15:31:32;3.20;;;1.80;;
74215;SDS011;62577;53.378;-2.914;2022-10-12T15:33:58;2.50;;;1.50;;
74215;SDS011;62577;53.378;-2.914;2022-10-12T15:36:24;2.72;;;0.90;;
74215;SDS011;62577;53.378;-2.914;2022-10-12T15:38:50;1.77;;;0.73;;
74215;SDS011;62577;53.378;-2.914;2022-10-12T15:41:17;1.73;;;1.08;;
74215;SDS011;62577;53.378;-2.914;2022-10-12T15:43:43;3.10;;;0.70;;
74215;SDS011;62577;53.378;-2.914;2022-10-12T15:46:12;2.40;;;0.85;;
74215;SDS011;62577;53.378;-2.914;2022-10-12T15:48:38;3.95;;;0.80;;
74215;SDS011;62577;53.378;-2.914;2022-10-12T15:51:25;2.65;;;1.02;;
74215;SDS011;62577;53.378;-2.914;2022-10-12T15:53:51;3.58;;;0.88;;
74215;SDS011;62577;53.378;-2.914;2022-10-12T15:56:17;2.90;;;0.90;;
74215;SDS011;62577;53.378;-2.914;2022-10-12T15:58:43;4.40;;;0.80;;
74215;SDS011;62577;53.378;-2.914;2022-10-12T16:01:13;2.50;;;0.70;;
74215;SDS011;62577;53.378;-2.914;2022-10-12T16:03:40;3.60;;;0.82;;
74215;SDS011;62577;53.378;-2.914;2022-10-12T16:06:06;4.38;;;0.80;;
74215;SDS011;62577;53.378;-2.914;2022-10-12T16:08:33;5.30;;;0.98;;
74215;SDS011;62577;53.378;-2.914;2022-10-12T16:11:01;3.65;;;0.98;;
74215;SDS011;62577;53.378;-2.914;2022-10-12T16:13:27;6.10;;;1.30;;
74215;SDS011;62577;53.378;-2.914;2022-10-12T16:15:53;4.72;;;0.82;;
74215;SDS011;62577;53.378;-2.914;2022-10-12T16:18:19;4.82;;;1.10;;
74215;SDS011;62577;53.378;-2.914;2022-10-12T16:20:45;2.67;;;0.85;;
74215;SDS011;62577;53.378;-2.914;2022-10-12T16:23:16;2.17;;;0.85;;
74215;SDS011;62577;53.378;-2.914;2022-10-12T16:25:43;5.18;;;0.93;;
74215;SDS011;62577;53.378;-2.914;2022-10-12T16:28:09;3.67;;;1.00;;
74215;SDS011;62577;53.378;-2.914;2022-10-12T16:30:36;3.08;;;1.30;;
74215;SDS011;62577;53.378;-2.914;2022-10-12T16:33:02;3.78;;;1.13;;